Time;durP1;ratioP1;P1;durP2;ratioP2;P2;SDS_P1;SDS_P2;PMS_P1;PMS_P2;Temp;Humidity;BMP_temperature;BMP_pressure;BME280_temperature;BME280_humidity;BME280_pressure;Samples;Min_cycle;Max_cycle;Signal;HPM_P1;HPM_P2
2022/05/16 00:01:19;;;;;;;;;;;;;;;21.29;59.88;100873.38;7281558;19;153544;-62
2022/05/16 00:03:46;;;;;;;;;;;;;;;21.36;59.57;100869.28;7282443;19;153420;-60
2022/05/16 00:06:12;;;;;;;;;;;;;;;21.33;59.71;100858.69;7281844;19;151793;-59
2022/05/16 00:08:39;;;;;;;;;;;;;;;21.31;59.87;100864.59;7291078;19;153265;-59
2022/05/16 00:11:05;;;;;;;;;;;;;;;21.31;60.08;100858.97;7283387;19;152614;-59
2022/05/16 00:13:32;;;;;;;;;;;;;;;21.30;60.22;100848.91;7284692;19;153355;-58
2022/05/16 00:16:00;;;;;;;;;;;;;;;21.30;59.98;100846.09;7281765;19;154184;-60
2022/05/16 00:18:27;;;;;;;;;;;;;;;21.29;60.31;100839.66;7282740;19;151785;-60
2022/05/16 00:20:53;;;;;;;;;;;;;;;21.29;60.19;100836.84;7283688;19;152733;-60
2022/05/16 00:23:20;;;;;;;;;;;;;;;21.31;60.14;100833.69;7280583;19;153404;-62
2022/05/16 00:25:47;;;;;;;;;;;;;;;21.29;60.26;100833.19;7284493;19;151833;-60
2022/05/16 00:28:14;;;;;;;;;;;;;;;21.31;60.31;100833.69;7284047;19;153283;-61
2022/05/16 00:30:40;;;;;;;;;;;;;;;21.29;60.51;100824.75;7289138;19;153387;-60
2022/05/16 00:33:07;;;;;;;;;;;;;;;21.29;60.50;100824.75;7284009;19;153309;-60
2022/05/16 00:35:34;;;;;;;;;;;;;;;21.28;60.42;100832.34;7282218;19;153637;-60
2022/05/16 00:38:00;;;;;;;;;;;;;;;21.29;60.50;100830.38;7283892;19;151832;-60
2022/05/16 00:40:27;;;;;;;;;;;;;;;21.30;60.07;100838.47;7283047;19;153101;-60
2022/05/16 00:43:04;;;;;;;;;;;;;;;21.33;60.39;100836.19;7280060;19;154976;-59
2022/05/16 00:45:31;;;;;;;;;;;;;;;21.31;61.13;100839.31;7283223;19;152074;-60
2022/05/16 00:47:58;;;;;;;;;;;;;;;21.31;60.80;100839.31;7281843;19;154274;-59
2022/05/16 00:50:25;;;;;;;;;;;;;;;21.30;61.24;100840.50;7282312;19;153290;-60
2022/05/16 00:52:52;;;;;;;;;;;;;;;21.30;61.15;100851.72;7290126;19;152037;-59
2022/05/16 00:55:29;;;;;;;;;;;;;;;21.30;60.86;100841.28;7282693;19;153004;-60
2022/05/16 00:58:00;;;;;;;;;;;;;;;21.30;61.18;100857.34;7279464;19;152276;-60
2022/05/16 01:00:29;;;;;;;;;;;;;;;21.30;60.80;100857.34;7283721;19;152790;-59
2022/05/16 01:05:34;;;;;;;;;;;;;;;21.30;61.29;100854.53;7280669;19;152332;-61
2022/05/16 01:08:02;;;;;;;;;;;;;;;21.29;61.28;100852.88;7280639;19;152897;-60
2022/05/16 01:10:29;;;;;;;;;;;;;;;21.28;61.16;100846.41;7279373;19;152926;-61
2022/05/16 01:12:56;;;;;;;;;;;;;;;21.30;60.94;100848.91;7282274;19;151674;-60
2022/05/16 01:15:24;;;;;;;;;;;;;;;21.30;61.34;100855.34;7288593;19;152089;-60
2022/05/16 01:17:51;;;;;;;;;;;;;;;21.33;60.98;100850.25;7282384;19;152018;-59
2022/05/16 01:20:18;;;;;;;;;;;;;;;21.33;61.39;100841.81;7281042;19;152695;-60
2022/05/16 01:22:47;;;;;;;;;;;;;;;21.35;60.83;100850.78;7277774;19;153338;-60
2022/05/16 01:25:24;;;;;;;;;;;;;;;21.34;61.46;100835.06;7281664;19;152663;-59
2022/05/16 01:27:53;;;;;;;;;;;;;;;21.34;61.12;100841.50;7287175;19;152976;-60
2022/05/16 01:30:22;;;;;;;;;;;;;;;21.43;61.53;100833.16;7285235;19;152261;-59
2022/05/16 01:32:49;;;;;;;;;;;;;;;21.41;61.54;100839.09;7289590;19;151723;-59
2022/05/16 01:35:18;;;;;;;;;;;;;;;21.39;61.60;100830.16;7288564;19;152951;-59
2022/05/16 01:40:20;;;;;;;;;;;;;;;21.36;61.80;100833.56;7287562;19;153503;-60
2022/05/16 01:42:47;;;;;;;;;;;;;;;21.35;61.59;100831.91;7284903;19;152677;-58
2022/05/16 01:45:14;;;;;;;;;;;;;;;21.37;61.94;100831.59;7288504;19;151781;-59
2022/05/16 01:47:41;;;;;;;;;;;;;;;21.35;60.11;100833.91;7288750;19;151560;-59
2022/05/16 01:50:08;;;;;;;;;;;;;;;21.31;59.70;100825.25;7286559;19;154459;-59
2022/05/16 01:52:34;;;;;;;;;;;;;;;21.27;58.94;100829.84;7285944;19;151824;-60
2022/05/16 01:55:01;;;;;;;;;;;;;;;21.11;59.25;100822.91;7288024;19;152565;-60
2022/05/16 01:57:28;;;;;;;;;;;;;;;21.09;59.50;100814.78;7290281;19;153891;-58
2022/05/16 01:59:55;;;;;;;;;;;;;;;21.15;59.81;100807.09;7287700;19;153375;-59
2022/05/16 02:02:21;;;;;;;;;;;;;;;21.12;60.03;100811.34;7285443;19;153248;-58
2022/05/16 02:04:48;;;;;;;;;;;;;;;21.12;59.95;100819.75;7287940;19;152169;-59
2022/05/16 02:07:14;;;;;;;;;;;;;;;21.13;60.34;100820.63;7287512;19;151619;-59
2022/05/16 02:09:40;;;;;;;;;;;;;;;21.13;60.66;100820.63;7286867;19;153146;-58
2022/05/16 02:12:08;;;;;;;;;;;;;;;21.11;60.52;100817.28;7287810;19;151842;-59
2022/05/16 02:14:34;;;;;;;;;;;;;;;21.14;60.51;100817.50;7282406;19;153456;-59
2022/05/16 02:17:01;;;;;;;;;;;;;;;21.14;60.51;100820.31;7286541;19;152423;-60
2022/05/16 02:19:28;;;;;;;;;;;;;;;21.15;60.77;100815.53;7294797;19;151458;-59
2022/05/16 02:27:09;;;;;;;;;;;;;;;21.14;60.86;100795.03;7288497;19;153005;-60
2022/05/16 02:29:36;;;;;;;;;;;;;;;21.17;60.84;100800.00;7284500;19;153243;-59
2022/05/16 02:32:03;;;;;;;;;;;;;;;21.15;60.73;100787.44;7288106;19;151787;-59
2022/05/16 02:34:30;;;;;;;;;;;;;;;21.14;60.87;100794.19;7287399;19;153362;-59
2022/05/16 02:36:57;;;;;;;;;;;;;;;21.15;60.84;100791.09;7284028;19;153980;-59
2022/05/16 02:39:27;;;;;;;;;;;;;;;21.16;60.94;100806.81;7284391;19;152138;-60
2022/05/16 02:41:54;;;;;;;;;;;;;;;21.16;61.06;100801.19;7293001;19;153368;-59
2022/05/16 02:44:21;;;;;;;;;;;;;;;21.16;60.69;100800.34;7285602;19;151842;-60
2022/05/16 02:46:48;;;;;;;;;;;;;;;21.17;61.12;100787.94;7285399;19;153724;-59
2022/05/16 02:49:21;;;;;;;;;;;;;;;21.16;60.75;100775.06;7285730;19;151884;-59
2022/05/16 02:51:48;;;;;;;;;;;;;;;21.17;60.83;100794.38;7285820;19;152210;-60
2022/05/16 02:54:15;;;;;;;;;;;;;;;21.17;60.68;100790.75;7287350;19;153986;-60
2022/05/16 02:56:41;;;;;;;;;;;;;;;21.16;60.96;100809.63;7284865;19;153260;-59
2022/05/16 02:59:08;;;;;;;;;;;;;;;21.16;60.99;100792.75;7286135;19;152229;-60
2022/05/16 03:01:36;;;;;;;;;;;;;;;21.17;60.96;100796.38;7284888;19;153889;-59
2022/05/16 03:04:02;;;;;;;;;;;;;;;21.18;60.83;100798.03;7290186;19;152037;-58
2022/05/16 03:06:29;;;;;;;;;;;;;;;21.18;60.77;100800.84;7286434;19;153371;-59
2022/05/16 03:08:56;;;;;;;;;;;;;;;21.19;60.70;100794.09;7285597;19;152317;-60
2022/05/16 03:11:22;;;;;;;;;;;;;;;21.18;61.03;100775.56;7285869;19;151759;-59
2022/05/16 03:13:49;;;;;;;;;;;;;;;21.18;61.28;100783.97;7286377;19;152677;-59
2022/05/16 03:16:16;;;;;;;;;;;;;;;21.17;61.16;100799.19;7285454;19;153254;-59
2022/05/16 03:18:43;;;;;;;;;;;;;;;21.17;61.06;100807.59;7283652;19;152657;-60
2022/05/16 03:21:11;;;;;;;;;;;;;;;21.18;61.25;100820.50;7283387;19;153374;-60
2022/05/16 03:23:37;;;;;;;;;;;;;;;21.18;60.94;100814.91;7281712;19;153202;-59
2022/05/16 03:26:04;;;;;;;;;;;;;;;21.18;60.82;100817.69;7291668;19;151733;-60
2022/05/16 03:28:31;;;;;;;;;;;;;;;21.17;61.29;100816.03;7283201;19;154225;-59
2022/05/16 03:30:59;;;;;;;;;;;;;;;21.16;60.83;100817.19;7285741;19;152217;-60
2022/05/16 03:33:26;;;;;;;;;;;;;;;21.15;61.31;100819.19;7286153;19;152555;-59
2022/05/16 03:35:56;;;;;;;;;;;;;;;21.16;61.27;100814.41;7282956;19;153329;-59
2022/05/16 03:41:00;;;;;;;;;;;;;;;21.18;61.07;100789.59;7285227;19;152967;-64
2022/05/16 03:43:28;;;;;;;;;;;;;;;21.18;60.92;100798.03;7279552;19;153618;-59
2022/05/16 03:45:55;;;;;;;;;;;;;;;21.18;61.10;100807.31;7290873;19;151942;-59
2022/05/16 03:48:22;;;;;;;;;;;;;;;21.18;61.02;100792.41;7284444;19;153291;-59
2022/05/16 03:50:48;;;;;;;;;;;;;;;21.17;61.18;100785.13;7283662;19;151911;-59
2022/05/16 03:53:15;;;;;;;;;;;;;;;21.17;61.10;100774.72;7283101;19;152571;-59
2022/05/16 03:55:42;;;;;;;;;;;;;;;21.15;61.07;100763.00;7284894;19;153319;-59
2022/05/16 03:58:08;;;;;;;;;;;;;;;21.16;60.94;100789.09;7279894;19;152612;-59
2022/05/16 04:00:35;;;;;;;;;;;;;;;21.17;60.60;100790.75;7283608;19;153671;-58
2022/05/16 04:03:02;;;;;;;;;;;;;;;21.16;61.13;100781.50;7283175;19;154196;-59
2022/05/16 04:05:29;;;;;;;;;;;;;;;21.16;60.77;100780.69;7284020;19;151834;-59
2022/05/16 04:07:56;;;;;;;;;;;;;;;21.15;60.83;100787.44;7290766;19;151732;-59
2022/05/16 04:10:24;;;;;;;;;;;;;;;21.15;60.82;100776.19;7282621;19;151929;-59
2022/05/16 04:12:51;;;;;;;;;;;;;;;21.15;61.12;100773.41;7284506;19;152775;-59
2022/05/16 04:15:18;;;;;;;;;;;;;;;21.15;61.24;100774.22;7283422;19;153445;-59
2022/05/16 04:17:45;;;;;;;;;;;;;;;21.15;60.92;100779.00;7283919;19;151521;-59
2022/05/16 04:20:13;;;;;;;;;;;;;;;21.15;60.92;100774.22;7284077;19;153577;-59
2022/05/16 04:22:40;;;;;;;;;;;;;;;21.16;61.25;100772.25;7280924;19;154213;-59
2022/05/16 04:25:08;;;;;;;;;;;;;;;21.15;61.16;100768.59;7281951;19;152295;-59
2022/05/16 04:27:35;;;;;;;;;;;;;;;21.16;61.30;100756.22;7281942;19;152393;-59
2022/05/16 04:30:03;;;;;;;;;;;;;;;21.14;61.50;100754.88;7287933;19;153278;-59
2022/05/16 04:32:29;;;;;;;;;;;;;;;21.16;61.23;100772.25;7281325;19;152707;-59
2022/05/16 04:34:55;;;;;;;;;;;;;;;21.20;62.01;100770.47;7282026;19;154103;-59
2022/05/16 04:37:22;;;;;;;;;;;;;;;21.19;61.82;100766.00;7281621;19;151996;-58
2022/05/16 04:39:49;;;;;;;;;;;;;;;21.19;61.72;100764.00;7283056;19;153004;-59
2022/05/16 04:44:53;;;;;;;;;;;;;;;21.18;61.81;100787.63;7280287;19;151799;-59
2022/05/16 04:47:19;;;;;;;;;;;;;;;21.19;62.21;100792.09;7280747;19;153177;-59
2022/05/16 04:49:46;;;;;;;;;;;;;;;21.19;61.80;100808.97;7282690;19;154277;-59
2022/05/16 04:52:13;;;;;;;;;;;;;;;21.20;61.70;100815.41;7289847;19;152058;-59
2022/05/16 04:54:40;;;;;;;;;;;;;;;21.20;61.61;100819.06;7281143;19;153268;-58
2022/05/16 04:57:07;;;;;;;;;;;;;;;21.19;61.99;100822.19;7279360;19;152298;-59
2022/05/16 04:59:34;;;;;;;;;;;;;;;21.20;61.84;100810.63;7283863;19;152556;-59
2022/05/16 05:02:01;;;;;;;;;;;;;;;21.19;61.91;100810.94;7284500;19;153914;-59
2022/05/16 05:04:28;;;;;;;;;;;;;;;21.19;61.66;100813.75;7288149;19;152039;-59
2022/05/16 05:06:55;;;;;;;;;;;;;;;21.20;61.66;100823.84;7287478;19;152793;-59
2022/05/16 05:09:24;;;;;;;;;;;;;;;21.21;61.65;100839.56;7288706;19;153349;-61
2022/05/16 05:17:04;;;;;;;;;;;;;;;21.17;62.06;100842.16;7287438;19;152071;-59
2022/05/16 05:19:32;;;;;;;;;;;;;;;21.18;61.92;100862.66;7289127;19;153518;-59
2022/05/16 05:21:59;;;;;;;;;;;;;;;21.18;61.94;100852.25;7287625;19;151943;-59
2022/05/16 05:24:26;;;;;;;;;;;;;;;21.20;61.97;100860.38;7286900;19;153339;-59
2022/05/16 05:26:53;;;;;;;;;;;;;;;21.19;61.89;100865.16;7287068;19;153951;-59
2022/05/16 05:29:19;;;;;;;;;;;;;;;21.17;61.63;100853.41;7287413;19;153229;-59
2022/05/16 05:31:46;;;;;;;;;;;;;;;21.19;61.62;100855.91;7288704;19;151686;-59
2022/05/16 05:34:13;;;;;;;;;;;;;;;21.20;61.52;100840.72;7289142;19;153840;-60
2022/05/16 05:36:41;;;;;;;;;;;;;;;21.18;61.81;100857.88;7295558;19;154484;-59
2022/05/16 05:39:08;;;;;;;;;;;;;;;21.20;61.66;100871.63;7288294;19;152809;-59
2022/05/16 05:41:35;;;;;;;;;;;;;;;21.20;61.54;100888.47;7286378;19;153294;-59
2022/05/16 05:44:02;;;;;;;;;;;;;;;21.19;61.92;100890.44;7288001;19;151694;-59
2022/05/16 05:46:33;;;;;;;;;;;;;;;21.18;62.08;100893.56;7287874;19;153413;-59
2022/05/16 05:49:00;;;;;;;;;;;;;;;21.19;62.05;100912.09;7287467;19;153168;-59
2022/05/16 05:51:27;;;;;;;;;;;;;;;21.20;61.58;100919.38;7286205;19;151705;-60
2022/05/16 05:53:53;;;;;;;;;;;;;;;21.18;61.79;100918.84;7285835;19;152738;-59
2022/05/16 05:56:22;;;;;;;;;;;;;;;21.17;62.04;100920.00;7293516;19;153225;-59
2022/05/16 05:58:49;;;;;;;;;;;;;;;21.18;61.59;100924.47;7287901;19;153400;-58
2022/05/16 06:01:16;;;;;;;;;;;;;;;21.18;61.94;100919.69;7285071;19;153655;-58
2022/05/16 06:03:43;;;;;;;;;;;;;;;21.18;61.57;100927.28;7287745;19;152300;-59
2022/05/16 06:06:20;;;;;;;;;;;;;;;21.18;61.60;100930.09;7287692;19;153429;-59
2022/05/16 06:08:47;;;;;;;;;;;;;;;21.16;62.12;100933.25;7286341;19;153958;-59
2022/05/16 06:11:13;;;;;;;;;;;;;;;21.16;61.67;100947.28;7287840;19;151887;-59
2022/05/16 06:13:40;;;;;;;;;;;;;;;21.18;61.69;100958.19;7284833;19;153121;-59
2022/05/16 06:16:18;;;;;;;;;;;;;;;21.18;61.54;100966.63;7284077;19;154506;-58
2022/05/16 06:18:48;;;;;;;;;;;;;;;21.23;61.59;100972.13;7295872;19;151742;-59
2022/05/16 06:21:15;;;;;;;;;;;;;;;21.20;61.51;100961.53;7286536;19;153301;-60
2022/05/16 06:23:42;;;;;;;;;;;;;;;21.18;60.36;100975.06;7287381;19;151672;-60
2022/05/16 06:26:10;;;;;;;;;;;;;;;21.14;60.47;100982.44;7287719;19;152876;-60
2022/05/16 06:28:41;;;;;;;;;;;;;;;21.12;60.78;100991.13;7286090;19;152252;-59
2022/05/16 06:31:08;;;;;;;;;;;;;;;21.12;60.49;100987.53;7286777;19;152231;-59
2022/05/16 06:33:34;;;;;;;;;;;;;;;21.12;60.73;100984.72;7287318;19;152793;-59
2022/05/16 06:36:02;;;;;;;;;;;;;;;21.15;60.54;101000.97;7284167;19;153385;-60
2022/05/16 06:38:42;;;;;;;;;;;;;;;21.08;60.43;100998.53;7285421;19;152005;-61
2022/05/16 06:41:09;;;;;;;;;;;;;;;21.12;60.19;101010.81;7293658;19;154027;-60
2022/05/16 06:43:36;;;;;;;;;;;;;;;21.17;60.93;101007.09;7286134;19;152155;-60
2022/05/16 06:46:02;;;;;;;;;;;;;;;20.81;61.99;101002.13;7287319;19;154013;-60
2022/05/16 06:48:30;;;;;;;;;;;;;;;20.59;63.82;101006.75;7282769;19;153015;-60
2022/05/16 06:50:57;;;;;;;;;;;;;;;20.38;64.46;101017.50;7287107;19;152676;-60
2022/05/16 06:53:27;;;;;;;;;;;;;;;20.18;66.00;101021.44;7286992;19;152700;-60
2022/05/16 06:55:54;;;;;;;;;;;;;;;20.09;66.65;101023.25;7286008;19;154781;-60
2022/05/16 06:58:21;;;;;;;;;;;;;;;19.98;67.79;101030.19;7281681;19;152163;-60
2022/05/16 07:00:48;;;;;;;;;;;;;;;19.94;68.24;101023.50;7286113;19;152568;-60
2022/05/16 07:03:14;;;;;;;;;;;;;;;19.99;68.32;101043.88;7292928;19;154729;-60
2022/05/16 07:05:46;;;;;;;;;;;;;;;19.93;69.33;101044.25;7282206;19;152931;-60
2022/05/16 07:08:13;;;;;;;;;;;;;;;19.94;69.33;101043.13;7283881;19;153279;-60
2022/05/16 07:10:40;;;;;;;;;;;;;;;20.00;68.88;101033.50;7283259;19;152636;-60
2022/05/16 07:13:08;;;;;;;;;;;;;;;20.12;68.51;101042.31;7286389;19;153312;-60
2022/05/16 07:15:35;;;;;;;;;;;;;;;20.23;68.67;101048.56;7284617;19;153878;-60
2022/05/16 07:18:01;;;;;;;;;;;;;;;20.26;69.37;101062.03;7285615;19;151827;-60
2022/05/16 07:20:35;;;;;;;;;;;;;;;20.28;69.41;101063.38;7285260;19;153227;-60
2022/05/16 07:23:02;;;;;;;;;;;;;;;20.25;70.13;101060.34;7284970;19;154283;-60
2022/05/16 07:25:32;;;;;;;;;;;;;;;20.30;69.73;101072.38;7287670;19;152227;-61
2022/05/16 07:28:04;;;;;;;;;;;;;;;20.28;69.68;101066.19;7283939;19;154020;-59
2022/05/16 07:30:32;;;;;;;;;;;;;;;20.46;68.59;101061.72;7282798;19;151821;-60
2022/05/16 07:32:59;;;;;;;;;;;;;;;20.63;67.91;101062.00;7285412;19;153211;-60
2022/05/16 07:35:29;;;;;;;;;;;;;;;20.79;66.75;101065.38;7284482;19;152998;-60
2022/05/16 07:37:56;;;;;;;;;;;;;;;20.97;66.30;101069.28;7285906;19;152057;-61
2022/05/16 07:40:25;;;;;;;;;;;;;;;21.01;65.37;101076.78;7285093;19;153474;-60
2022/05/16 07:42:53;;;;;;;;;;;;;;;21.06;65.33;101075.84;7283687;19;154146;-60
2022/05/16 07:45:20;;;;;;;;;;;;;;;21.10;64.89;101071.28;7282913;19;152249;-61
2022/05/16 07:47:47;;;;;;;;;;;;;;;21.13;64.37;101071.50;7292415;19;153451;-59
2022/05/16 07:50:20;;;;;;;;;;;;;;;21.18;63.82;101076.22;7285078;19;152008;-60
2022/05/16 07:52:48;;;;;;;;;;;;;;;21.22;63.56;101085.69;7283914;19;153189;-60
2022/05/16 07:55:16;;;;;;;;;;;;;;;21.25;63.36;101099.13;7282463;19;154113;-59
2022/05/16 07:57:43;;;;;;;;;;;;;;;21.30;63.08;101096.22;7282582;19;152371;-60
2022/05/16 08:00:10;;;;;;;;;;;;;;;21.35;62.21;101092.50;7285215;19;154256;-60
2022/05/16 08:02:39;;;;;;;;;;;;;;;21.38;62.49;101092.69;7283086;19;153416;-60
2022/05/16 08:05:08;;;;;;;;;;;;;;;21.42;61.74;101090.94;7283592;19;151956;-60
2022/05/16 08:07:34;;;;;;;;;;;;;;;21.46;61.50;101117.25;7291264;19;152947;-60
2022/05/16 08:12:46;;;;;;;;;;;;;;;21.55;61.06;101118.22;7285149;19;152518;-60
2022/05/16 08:15:15;;;;;;;;;;;;;;;21.60;60.75;101126.56;7283483;19;153804;-60
2022/05/16 08:17:42;;;;;;;;;;;;;;;21.65;60.63;101114.38;7284333;19;151637;-59
2022/05/16 08:20:09;;;;;;;;;;;;;;;21.70;60.33;101125.53;7283020;19;152696;-61
2022/05/16 08:22:36;;;;;;;;;;;;;;;21.74;59.96;101129.38;7283277;19;153754;-60
2022/05/16 08:25:03;;;;;;;;;;;;;;;21.78;59.59;101136.03;7282717;19;151887;-59
2022/05/16 08:27:32;;;;;;;;;;;;;;;21.82;59.54;101145.50;7284494;19;153827;-60
2022/05/16 08:29:58;;;;;;;;;;;;;;;21.85;59.20;101160.94;7290008;19;153459;-60
2022/05/16 08:32:25;;;;;;;;;;;;;;;21.88;58.87;101144.28;7283388;19;152782;-60
2022/05/16 08:34:56;;;;;;;;;;;;;;;21.92;58.85;101155.72;7282327;19;153403;-60
2022/05/16 08:40:09;;;;;;;;;;;;;;;21.99;58.35;101150.53;7290403;19;153374;-59
2022/05/16 08:42:58;;;;;;;;;;;;;;;22.02;57.74;101147.94;7288714;19;154100;-60
2022/05/16 08:45:28;;;;;;;;;;;;;;;22.05;57.54;101149.28;7285765;19;151897;-60
2022/05/16 08:47:58;;;;;;;;;;;;;;;22.07;57.91;101150.66;7288075;19;153338;-59
2022/05/16 08:50:28;;;;;;;;;;;;;;;22.09;57.60;101159.59;7289965;19;153210;-60
2022/05/16 08:52:58;;;;;;;;;;;;;;;22.12;57.43;101156.16;7296517;19;152023;-60
2022/05/16 08:55:37;;;;;;;;;;;;;;;22.12;57.53;101158.16;7288676;19;154010;-60
2022/05/16 08:58:09;;;;;;;;;;;;;;;22.13;57.21;101160.63;7286585;19;151957;-59
2022/05/16 09:00:45;;;;;;;;;;;;;;;22.14;56.91;101167.09;7289928;19;153291;-60
2022/05/16 09:03:15;;;;;;;;;;;;;;;22.16;56.68;101170.44;7286097;19;153640;-59
2022/05/16 09:05:49;;;;;;;;;;;;;;;22.16;56.76;101160.03;7288514;19;152277;-60
2022/05/16 09:08:28;;;;;;;;;;;;;;;22.18;56.50;101171.78;7287688;19;153643;-60
2022/05/16 09:10:59;;;;;;;;;;;;;;;22.17;56.74;101160.84;7288433;19;154281;-60
2022/05/16 09:13:29;;;;;;;;;;;;;;;22.18;56.24;101168.97;7288179;19;151845;-60
2022/05/16 09:16:10;;;;;;;;;;;;;;;22.21;56.04;101173.16;7296399;19;152680;-60
2022/05/16 09:19:05;;;;;;;;;;;;;;;22.24;56.05;101178.16;7288662;19;151963;-60
2022/05/16 09:21:38;;;;;;;;;;;;;;;22.25;55.85;101201.50;7290251;19;153093;-59
2022/05/16 09:24:11;;;;;;;;;;;;;;;22.25;56.15;101193.06;7287562;19;153550;-60
2022/05/16 09:26:57;;;;;;;;;;;;;;;22.23;55.90;101201.81;7285951;19;152459;-59
2022/05/16 09:29:28;;;;;;;;;;;;;;;22.22;55.89;101213.38;7289635;19;153023;-59
2022/05/16 09:31:59;;;;;;;;;;;;;;;22.24;55.77;101220.38;7287558;19;153985;-60
2022/05/16 09:34:27;;;;;;;;;;;;;;;22.23;55.71;101227.13;7289768;19;152072;-61
2022/05/16 09:36:53;;;;;;;;;;;;;;;22.23;55.76;101229.13;7287955;19;153223;-60
2022/05/16 09:39:21;;;;;;;;;;;;;;;22.24;55.89;101233.59;7295200;19;154251;-60
2022/05/16 09:41:48;;;;;;;;;;;;;;;22.26;55.55;101228.50;7288886;19;154685;-60
2022/05/16 09:44:18;;;;;;;;;;;;;;;22.26;55.50;101234.13;7287921;19;153220;-60
2022/05/16 09:46:45;;;;;;;;;;;;;;;22.26;55.41;101245.41;7285011;19;151897;-60
2022/05/16 09:49:18;;;;;;;;;;;;;;;22.23;55.44;101246.84;7287329;19;152918;-61
2022/05/16 09:51:52;;;;;;;;;;;;;;;22.24;55.19;101248.50;7285906;19;153323;-60
2022/05/16 09:54:22;;;;;;;;;;;;;;;22.26;55.28;101251.03;7288242;19;151957;-60
2022/05/16 09:56:56;;;;;;;;;;;;;;;22.30;54.81;101252.06;7287192;19;153222;-60
2022/05/16 09:59:46;;;;;;;;;;;;;;;22.35;54.79;101254.78;7286043;19;153144;-60
2022/05/16 10:02:19;;;;;;;;;;;;;;;22.31;55.12;101248.91;7294182;19;152100;-60
2022/05/16 10:05:00;;;;;;;;;;;;;;;22.30;54.91;101247.28;7287039;19;153636;-60
2022/05/16 10:07:45;;;;;;;;;;;;;;;22.25;55.29;101253.00;7288578;19;151990;-59
2022/05/16 10:10:17;;;;;;;;;;;;;;;22.22;55.29;101269.66;7288616;19;152665;-60
2022/05/16 10:12:45;;;;;;;;;;;;;;;22.24;55.28;101265.41;7286374;19;153421;-59
2022/05/16 10:15:12;;;;;;;;;;;;;;;22.22;55.17;101280.91;7289165;19;152253;-59
2022/05/16 10:17:40;;;;;;;;;;;;;;;22.21;54.98;101268.84;7287480;19;153934;-61
2022/05/16 10:20:26;;;;;;;;;;;;;;;22.20;54.70;101272.81;7287023;19;153320;-60
2022/05/16 10:22:59;;;;;;;;;;;;;;;22.20;55.09;101288.84;7295180;19;152318;-59
2022/05/16 10:25:32;;;;;;;;;;;;;;;22.20;54.69;101267.19;7284164;19;154610;-59
2022/05/16 10:28:00;;;;;;;;;;;;;;;22.21;54.64;101270.84;7287263;19;151955;-60
2022/05/16 10:30:29;;;;;;;;;;;;;;;22.23;54.68;101289.06;7288213;19;152764;-60
2022/05/16 10:35:50;;;;;;;;;;;;;;;22.21;54.79;101291.38;7287523;19;152453;-60
2022/05/16 10:38:22;;;;;;;;;;;;;;;22.19;54.76;101302.09;7287076;19;152526;-61
2022/05/16 10:40:51;;;;;;;;;;;;;;;22.20;54.62;101309.41;7286384;19;153522;-60
2022/05/16 10:43:19;;;;;;;;;;;;;;;22.18;54.42;101315.34;7286679;19;151987;-60
2022/05/16 10:45:49;;;;;;;;;;;;;;;22.17;54.40;101304.38;7290431;19;153217;-65
2022/05/16 10:48:24;;;;;;;;;;;;;;;22.15;54.50;101312.31;7286526;19;151840;-60
2022/05/16 10:50:55;;;;;;;;;;;;;;;22.14;54.67;101314.28;7286452;19;153644;-60
2022/05/16 10:53:27;;;;;;;;;;;;;;;22.13;54.66;101326.69;7284856;19;154098;-59
2022/05/16 10:55:58;;;;;;;;;;;;;;;22.10;54.91;101335.75;7287308;19;151737;-60
2022/05/16 10:58:35;;;;;;;;;;;;;;;22.12;54.63;101347.53;7283050;19;153297;-62
2022/05/16 11:01:21;;;;;;;;;;;;;;;22.10;54.51;101341.38;7285112;19;153946;-60
2022/05/16 11:03:51;;;;;;;;;;;;;;;22.11;54.63;101339.41;7286528;19;152043;-60
2022/05/16 11:06:31;;;;;;;;;;;;;;;22.06;54.92;101329.09;7283681;19;152019;-60
2022/05/16 11:09:06;;;;;;;;;;;;;;;22.08;55.03;101332.41;7290635;19;153234;-60
2022/05/16 11:11:40;;;;;;;;;;;;;;;22.09;55.01;101333.25;7287080;19;153011;-60
2022/05/16 11:14:16;;;;;;;;;;;;;;;22.11;54.93;101330.97;7284283;19;154637;-60
2022/05/16 11:16:43;;;;;;;;;;;;;;;22.05;54.75;101333.03;7286166;19;151938;-60
2022/05/16 11:19:14;;;;;;;;;;;;;;;22.05;54.65;101333.03;7283863;19;152726;-60
2022/05/16 11:21:44;;;;;;;;;;;;;;;22.05;54.91;101315.31;7282932;19;152076;-60
2022/05/16 11:24:29;;;;;;;;;;;;;;;22.12;54.85;101324.19;7286205;19;152128;-60
2022/05/16 11:26:58;;;;;;;;;;;;;;;22.18;54.83;101325.75;7283588;19;151642;-60
2022/05/16 11:29:36;;;;;;;;;;;;;;;22.23;54.25;101322.84;7284064;19;153567;-61
2022/05/16 11:32:03;;;;;;;;;;;;;;;22.26;54.54;101321.41;7291443;19;151788;-59
2022/05/16 11:34:40;;;;;;;;;;;;;;;22.31;54.18;101327.75;7284346;19;154303;-59
2022/05/16 11:37:30;;;;;;;;;;;;;;;22.34;54.21;101317.84;7285709;19;151944;-60
2022/05/16 11:40:03;;;;;;;;;;;;;;;22.35;54.33;101311.91;7282740;19;152938;-60
2022/05/16 11:42:33;;;;;;;;;;;;;;;22.35;54.35;101311.91;7283667;19;154079;-61
2022/05/16 11:45:15;;;;;;;;;;;;;;;22.36;54.79;101313.56;7284998;19;152148;-60
2022/05/16 11:47:51;;;;;;;;;;;;;;;22.43;54.82;101305.56;7285245;19;153705;-61
2022/05/16 11:50:41;;;;;;;;;;;;;;;22.48;55.73;101313.91;7283736;19;153984;-63
2022/05/16 11:53:31;;;;;;;;;;;;;;;22.47;56.87;101314.22;7263039;19;154117;-64
2022/05/16 12:01:38;;;;;;;;;;;;;;;22.37;55.14;101329.31;7285144;19;153455;-65
2022/05/16 12:04:13;;;;;;;;;;;;;;;22.37;54.60;101336.94;7283384;19;154059;-63
2022/05/16 12:06:50;;;;;;;;;;;;;;;22.31;54.60;101336.19;7284109;19;152003;-66
2022/05/16 12:09:16;;;;;;;;;;;;;;;22.33;54.22;101325.47;7284217;19;153601;-65
2022/05/16 12:12:04;;;;;;;;;;;;;;;22.33;53.67;101342.34;7281913;19;153132;-64
2022/05/16 12:14:35;;;;;;;;;;;;;;;22.40;53.60;101336.31;7284181;19;153258;-64
2022/05/16 12:17:07;;;;;;;;;;;;;;;22.35;53.45;101327.97;7284519;19;153378;-66
2022/05/16 12:19:43;;;;;;;;;;;;;;;22.29;53.29;101332.88;7291209;19;151967;-66
2022/05/16 12:22:11;;;;;;;;;;;;;;;22.31;52.56;101330.56;7284548;19;152614;-63
2022/05/16 12:24:38;;;;;;;;;;;;;;;22.32;52.74;101323.78;7282670;19;154460;-66
2022/05/16 12:27:09;;;;;;;;;;;;;;;22.29;53.37;101320.78;7282166;19;152020;-65
2022/05/16 12:29:40;;;;;;;;;;;;;;;22.24;53.02;101337.75;7283698;19;154699;-62
2022/05/16 12:32:08;;;;;;;;;;;;;;;22.27;52.95;101335.16;7283523;19;153210;-64
2022/05/16 12:34:38;;;;;;;;;;;;;;;22.28;52.05;101330.34;7281644;19;151848;-61
2022/05/16 12:37:06;;;;;;;;;;;;;;;22.22;52.82;101326.78;7283802;19;153322;-65
2022/05/16 12:39:33;;;;;;;;;;;;;;;22.21;52.54;101325.16;7289950;19;153227;-65
2022/05/16 12:42:10;;;;;;;;;;;;;;;22.17;52.69;101340.97;7284198;19;152648;-64
2022/05/16 12:44:41;;;;;;;;;;;;;;;22.16;52.49;101331.72;7282954;19;153119;-64
2022/05/16 12:47:26;;;;;;;;;;;;;;;22.21;52.62;101325.16;7282002;19;152169;-63
2022/05/16 12:50:12;;;;;;;;;;;;;;;22.17;52.59;101336.16;7283835;19;152422;-65
2022/05/16 12:52:42;;;;;;;;;;;;;;;22.16;52.74;101347.75;7282731;19;154046;-65
2022/05/16 12:55:12;;;;;;;;;;;;;;;22.17;52.11;101338.97;7279451;19;151893;-64
2022/05/16 12:57:39;;;;;;;;;;;;;;;22.14;52.50;101342.44;7281394;19;153284;-65
2022/05/16 13:00:08;;;;;;;;;;;;;;;22.11;52.22;101337.44;7280709;19;153397;-64
2022/05/16 13:02:45;;;;;;;;;;;;;;;22.13;52.22;101360.47;7290763;19;151803;-63
2022/05/16 13:05:22;;;;;;;;;;;;;;;22.15;52.44;101341.28;7282002;19;153250;-64
2022/05/16 13:07:57;;;;;;;;;;;;;;;22.11;52.75;101351.50;7280498;19;151862;-65
2022/05/16 13:10:34;;;;;;;;;;;;;;;22.13;52.72;101346.38;7282766;19;153458;-62
2022/05/16 13:13:20;;;;;;;;;;;;;;;22.14;52.89;101356.50;7282093;19;153316;-63
2022/05/16 13:15:51;;;;;;;;;;;;;;;22.14;52.67;101378.19;7282730;19;151758;-62